Time;durP1;ratioP1;P1;durP2;ratioP2;P2;SDS_P1;SDS_P2;PMS_P1;PMS_P2;Temp;Humidity;BMP_temperature;BMP_pressure;BME280_temperature;BME280_humidity;BME280_pressure;Samples;Min_cycle;Max_cycle;Signal;HPM_P1;HPM_P2
2022/01/15 00:00:27;;;;;;;11.88;5.37;;;;;;;2.90;76.59;100126.41;4305523;33;33902;-75
2022/01/15 00:02:55;;;;;;;15.80;6.35;;;;;;;3.25;75.62;100136.06;4282201;33;32974;-76
2022/01/15 00:05:24;;;;;;;12.68;6.20;;;;;;;3.13;76.80;100134.88;4306600;33;35070;-75
2022/01/15 00:07:52;;;;;;;14.15;7.07;;;;;;;3.39;75.59;100135.69;4315965;33;35179;-75
2022/01/15 00:10:25;;;;;;;13.70;7.18;;;;;;;3.07;76.89;100134.69;4305175;33;33624;-72
2022/01/15 00:12:57;;;;;;;10.73;5.62;;;;;;;3.21;76.47;100138.56;4284520;33;34009;-76
2022/01/15 00:15:30;;;;;;;12.73;6.00;;;;;;;3.22;76.43;100140.31;4304253;33;34905;-77
2022/01/15 00:18:05;;;;;;;12.43;5.60;;;;;;;3.11;76.54;100149.41;4299007;33;33889;-75
2022/01/15 00:20:32;;;;;;;13.00;7.25;;;;;;;3.10;77.10;100139.91;4319588;33;33687;-69
2022/01/15 00:23:01;;;;;;;12.15;5.22;;;;;;;3.50;75.18;100141.16;4318745;33;34409;-70
2022/01/15 00:25:30;;;;;;;11.20;5.57;;;;;;;3.36;75.33;100145.87;4319522;33;35048;-76
2022/01/15 00:28:00;;;;;;;14.90;6.87;;;;;;;2.94;77.22;100158.25;4302919;33;34475;-75
2022/01/15 00:30:29;;;;;;;10.48;5.85;;;;;;;2.73;77.68;100164.41;4305051;33;33722;-75
2022/01/15 00:32:57;;;;;;;15.25;6.12;;;;;;;2.93;77.00;100167.69;4311803;33;33772;-76
2022/01/15 00:35:26;;;;;;;14.70;7.30;;;;;;;2.87;77.69;100166.59;4306427;33;34929;-70
2022/01/15 00:37:54;;;;;;;10.95;5.47;;;;;;;2.70;78.00;100154.06;4311397;33;34377;-71
2022/01/15 00:40:22;;;;;;;12.02;6.43;;;;;;;2.61;78.32;100164.00;4308082;33;34574;-70
2022/01/15 00:42:50;;;;;;;13.62;6.60;;;;;;;2.64;78.21;100159.84;4312280;33;34647;-76
2022/01/15 00:45:21;;;;;;;10.63;6.28;;;;;;;2.83;77.92;100171.63;4303697;33;35907;-75
2022/01/15 00:47:50;;;;;;;13.85;6.93;;;;;;;2.83;77.63;100163.91;4292180;33;34528;-75
2022/01/15 00:50:19;;;;;;;10.55;5.95;;;;;;;2.71;78.40;100172.91;4304944;33;33682;-71
2022/01/15 00:52:47;;;;;;;9.85;5.62;;;;;;;2.74;78.42;100168.75;4290991;33;33931;-76
2022/01/15 00:55:15;;;;;;;16.33;7.18;;;;;;;2.57;78.81;100169.84;4299799;33;35909;-75
2022/01/15 00:57:44;;;;;;;12.18;6.55;;;;;;;2.40;79.69;100180.44;4317258;33;34311;-75
2022/01/15 01:00:17;;;;;;;11.82;6.62;;;;;;;2.80;78.64;100181.81;4318239;33;33758;-70
2022/01/15 01:02:46;;;;;;;14.02;7.05;;;;;;;2.71;78.09;100180.63;4303385;33;34887;-75
2022/01/15 01:05:14;;;;;;;13.55;7.22;;;;;;;2.25;80.54;100180.75;4306096;33;34897;-71
2022/01/15 01:07:42;;;;;;;14.70;6.55;;;;;;;2.54;79.53;100192.87;4313423;33;34599;-71
2022/01/15 01:23:43;;;;;;;13.57;7.05;;;;;;;2.76;78.36;100218.53;4318142;33;34708;-75
2022/01/15 01:26:24;;;;;;;11.57;6.43;;;;;;;2.82;78.45;100216.19;4319276;33;35869;-75
2022/01/15 01:29:26;;;;;;;11.48;6.45;;;;;;;2.90;78.18;100218.16;4304918;33;33779;-70
2022/01/15 01:31:58;;;;;;;9.18;4.80;;;;;;;3.06;77.21;100211.81;4319094;33;33647;-74
2022/01/15 01:34:29;;;;;;;18.73;6.85;;;;;;;2.79;78.53;100208.38;4318998;33;33589;-75
2022/01/15 01:37:08;;;;;;;12.45;6.25;;;;;;;2.76;78.22;100215.09;4318043;33;35852;-75
2022/01/15 01:39:49;;;;;;;10.95;6.65;;;;;;;2.55;78.64;100222.94;4304880;33;35234;-75
2022/01/15 01:45:08;;;;;;;16.87;7.20;;;;;;;2.53;79.11;100211.72;4319058;33;34833;-74
2022/01/15 01:47:40;;;;;;;14.13;5.55;;;;;;;2.51;79.34;100203.09;4315196;33;34730;-75
2022/01/15 01:50:19;;;;;;;11.05;6.07;;;;;;;2.92;77.59;100208.78;4302369;33;34653;-75
2022/01/15 01:52:50;;;;;;;12.37;5.72;;;;;;;2.87;77.75;100202.59;4308101;33;33665;-75
2022/01/15 01:55:22;;;;;;;12.20;5.00;;;;;;;2.38;79.98;100200.06;4290595;33;32489;-75
2022/01/15 01:57:56;;;;;;;16.50;6.30;;;;;;;2.65;79.38;100191.59;4292783;33;35029;-76
2022/01/15 02:00:26;;;;;;;12.50;6.70;;;;;;;2.29;80.38;100174.00;4296269;33;34249;-70
2022/01/15 02:02:54;;;;;;;9.98;5.68;;;;;;;2.38;80.65;100169.22;4291864;33;33479;-75
2022/01/15 02:05:23;;;;;;;10.30;5.60;;;;;;;2.42;80.61;100170.22;4309154;33;34812;-70
2022/01/15 02:07:51;;;;;;;16.70;6.90;;;;;;;2.57;79.94;100173.28;4304782;33;35149;-75
2022/01/15 02:10:20;;;;;;;11.50;6.65;;;;;;;2.50;80.19;100173.91;4305666;33;34486;-77
2022/01/15 02:12:55;;;;;;;10.65;5.65;;;;;;;2.68;78.93;100183.94;4316953;33;33678;-74
2022/01/15 02:15:24;;;;;;;11.35;5.05;;;;;;;2.38;80.06;100184.66;4305400;33;33970;-70
2022/01/15 02:17:52;;;;;;;11.40;6.00;;;;;;;2.59;79.44;100188.78;4307501;33;34547;-72
2022/01/15 02:25:46;;;;;;;10.18;5.90;;;;;;;2.96;77.52;100184.91;4304095;33;33940;-70
2022/01/15 02:28:15;;;;;;;14.27;5.63;;;;;;;2.58;78.71;100190.47;4309328;33;35743;-74
2022/01/15 02:30:43;;;;;;;13.48;7.28;;;;;;;3.15;76.44;100196.69;4305333;33;35068;-70
2022/01/15 02:33:11;;;;;;;11.90;5.57;;;;;;;2.79;77.17;100195.50;4300910;33;33808;-75
2022/01/15 02:35:39;;;;;;;12.32;6.20;;;;;;;3.14;75.83;100197.50;4290937;33;34039;-74
2022/01/15 02:38:08;;;;;;;13.15;6.68;;;;;;;2.98;76.08;100202.16;4303388;33;35587;-74
2022/01/15 02:40:36;;;;;;;13.07;5.87;;;;;;;2.74;77.37;100202.19;4290852;33;34438;-70
2022/01/15 02:43:06;;;;;;;16.37;6.50;;;;;;;2.50;78.07;100197.03;4307427;33;34531;-75
2022/01/15 02:45:35;;;;;;;13.45;6.22;;;;;;;2.82;76.82;100199.84;4318386;33;36003;-70
2022/01/15 02:48:09;;;;;;;11.68;5.60;;;;;;;2.92;75.84;100201.06;4317043;33;35027;-70
2022/01/15 02:50:38;;;;;;;11.38;6.28;;;;;;;2.47;77.41;100187.53;4317183;33;35166;-74
2022/01/15 02:53:07;;;;;;;11.25;6.57;;;;;;;2.74;76.35;100186.75;4317068;33;33718;-70
2022/01/15 02:55:40;;;;;;;16.40;7.15;;;;;;;2.82;75.95;100190.47;4305116;33;33771;-70
2022/01/15 02:58:08;;;;;;;11.12;5.82;;;;;;;2.31;77.98;100190.34;4301628;33;34821;-75
2022/01/15 03:00:36;;;;;;;12.15;7.07;;;;;;;2.80;76.98;100191.22;4303662;33;33983;-70
2022/01/15 03:03:04;;;;;;;16.75;6.55;;;;;;;2.28;77.76;100186.00;4310829;33;33798;-70
2022/01/15 03:05:33;;;;;;;14.10;6.37;;;;;;;2.67;76.19;100191.62;4317989;33;34034;-70
2022/01/15 03:08:01;;;;;;;13.38;7.10;;;;;;;2.67;76.16;100189.94;4301391;33;34140;-76
2022/01/15 03:10:29;;;;;;;13.30;6.87;;;;;;;2.19;76.70;100190.81;4307873;33;34675;-75
2022/01/15 03:12:58;;;;;;;13.13;5.55;;;;;;;1.94;78.01;100189.03;4290074;33;34681;-75
2022/01/15 03:15:26;;;;;;;11.70;6.18;;;;;;;2.42;76.96;100183.94;4304946;33;33837;-70
2022/01/15 03:17:54;;;;;;;12.63;6.82;;;;;;;2.23;78.23;100178.94;4300811;33;35901;-70
2022/01/15 03:20:22;;;;;;;13.32;4.68;;;;;;;1.93;79.41;100171.84;4291104;33;34459;-70
2022/01/15 03:22:50;;;;;;;9.50;6.10;;;;;;;1.96;80.11;100155.66;4290637;33;33674;-74
2022/01/15 03:25:18;;;;;;;11.20;4.87;;;;;;;1.80;81.71;100151.66;4304313;33;34812;-75
2022/01/15 03:27:46;;;;;;;7.70;4.32;;;;;;;1.89;82.18;100154.59;4302947;33;34969;-75
2022/01/15 03:30:14;;;;;;;11.38;5.97;;;;;;;2.02;81.37;100156.78;4298575;33;32998;-71
2022/01/15 03:32:45;;;;;;;12.45;6.37;;;;;;;1.90;81.60;100162.31;4303176;33;34524;-84
2022/01/15 03:35:15;;;;;;;11.50;6.50;;;;;;;1.86;82.12;100160.47;4305500;33;33897;-70
2022/01/15 03:37:43;;;;;;;10.63;5.40;;;;;;;1.80;82.71;100174.78;4303138;33;35090;-77
2022/01/15 03:40:13;;;;;;;15.20;6.18;;;;;;;1.83;82.64;100162.91;4305326;33;35710;-75
2022/01/15 03:42:42;;;;;;;12.90;6.22;;;;;;;2.04;81.83;100167.97;4303334;33;33806;-75
2022/01/15 03:45:11;;;;;;;12.98;5.68;;;;;;;1.77;81.99;100169.53;4304084;33;33811;-70
2022/01/15 03:47:40;;;;;;;12.15;5.40;;;;;;;2.06;81.11;100173.19;4303222;33;34956;-70
2022/01/15 03:50:09;;;;;;;10.63;6.00;;;;;;;2.11;80.38;100165.66;4303928;33;35279;-70
2022/01/15 03:52:38;;;;;;;11.12;6.45;;;;;;;2.02;80.69;100176.47;4304299;33;33596;-70
2022/01/15 03:55:08;;;;;;;6.43;3.85;;;;;;;1.93;81.11;100171.84;4290714;33;33860;-69
2022/01/15 03:57:37;;;;;;;7.37;4.28;;;;;;;2.25;80.08;100172.16;4289265;33;35336;-70
2022/01/15 04:00:14;;;;;;;10.90;5.82;;;;;;;2.37;78.91;100175.19;4291723;33;35147;-70
2022/01/15 04:02:42;;;;;;;10.00;5.45;;;;;;;2.52;78.13;100179.09;4304270;33;34521;-70
2022/01/15 04:05:11;;;;;;;9.18;6.10;;;;;;;2.19;79.38;100195.06;4291992;33;34858;-72
2022/01/15 04:07:39;;;;;;;11.65;5.15;;;;;;;1.96;80.07;100187.41;4304615;33;34948;-70
2022/01/15 04:10:10;;;;;;;10.02;4.53;;;;;;;1.82;81.15;100203.97;4304912;33;35318;-75
2022/01/15 04:12:38;;;;;;;6.70;4.40;;;;;;;2.24;79.72;100201.25;4305549;33;34476;-70
2022/01/15 04:15:08;;;;;;;10.93;5.60;;;;;;;2.45;78.83;100209.75;4319326;33;33011;-75
2022/01/15 04:17:36;;;;;;;9.43;5.32;;;;;;;1.67;81.07;100217.94;4319601;33;35135;-75
2022/01/15 04:20:05;;;;;;;10.55;5.12;;;;;;;1.95;80.99;100213.87;4297730;33;34372;-71
2022/01/15 04:22:32;;;;;;;8.10;4.40;;;;;;;1.90;79.94;100211.13;4305043;33;34568;-70
2022/01/15 04:25:00;;;;;;;17.42;6.82;;;;;;;1.99;80.53;100213.16;4302358;33;33906;-76
2022/01/15 04:27:28;;;;;;;11.15;5.78;;;;;;;1.79;81.26;100214.13;4291596;33;35111;-76
2022/01/15 04:30:01;;;;;;;11.32;5.43;;;;;;;1.82;81.83;100214.25;4303071;33;35211;-74
2022/01/15 04:32:30;;;;;;;7.75;4.72;;;;;;;1.85;81.14;100219.47;4292631;33;34477;-76
2022/01/15 04:34:58;;;;;;;12.73;6.37;;;;;;;1.78;81.45;100228.62;4310514;33;216930;-76
2022/01/15 04:37:36;;;;;;;13.68;5.85;;;;;;;1.72;81.20;100227.53;4319545;33;35742;-70
2022/01/15 04:40:06;;;;;;;7.87;4.87;;;;;;;1.77;81.57;100236.31;4294717;33;34377;-69
2022/01/15 04:42:34;;;;;;;13.20;5.53;;;;;;;2.00;80.41;100234.63;4291613;33;34123;-73
2022/01/15 04:45:03;;;;;;;13.62;6.20;;;;;;;2.22;79.79;100237.19;4304434;33;33935;-70
2022/01/15 04:47:31;;;;;;;12.82;5.65;;;;;;;1.94;80.41;100235.28;4319443;33;35104;-75
2022/01/15 04:49:59;;;;;;;9.85;5.20;;;;;;;2.03;80.27;100240.75;4318239;33;35334;-70
2022/01/15 04:52:27;;;;;;;9.93;4.68;;;;;;;1.89;80.87;100247.06;4319456;33;33422;-78
2022/01/15 04:54:55;;;;;;;9.18;4.57;;;;;;;1.84;81.37;100240.84;4302839;33;34247;-77
2022/01/15 04:57:23;;;;;;;11.68;5.65;;;;;;;1.98;81.05;100236.25;4291512;33;35774;-70
2022/01/15 04:59:51;;;;;;;14.32;5.93;;;;;;;2.04;80.50;100232.19;4302858;33;34466;-75
2022/01/15 05:02:19;;;;;;;11.75;5.65;;;;;;;2.05;79.32;100226.25;4291991;33;34580;-75
2022/01/15 05:04:47;;;;;;;5.47;3.55;;;;;;;1.96;80.82;100233.63;4304424;33;33902;-70
2022/01/15 05:07:15;;;;;;;9.32;4.50;;;;;;;1.86;80.48;100229.81;4303613;33;35865;-70
2022/01/15 05:09:44;;;;;;;8.40;5.15;;;;;;;1.92;80.53;100234.31;4314675;33;35354;-74
2022/01/15 05:12:26;;;;;;;12.57;5.50;;;;;;;2.06;79.97;100228.00;4318180;33;33794;-75
2022/01/15 05:14:54;;;;;;;12.27;5.15;;;;;;;1.71;80.90;100231.78;4303572;33;33887;-71
2022/01/15 05:17:22;;;;;;;8.52;4.97;;;;;;;1.61;82.44;100229.69;4303578;33;35959;-71
2022/01/15 05:19:50;;;;;;;10.88;5.45;;;;;;;1.58;82.10;100235.56;4303563;33;35357;-71
2022/01/15 05:22:18;;;;;;;10.88;5.47;;;;;;;1.61;81.42;100237.41;4303458;33;33781;-70
2022/01/15 05:24:46;;;;;;;9.05;5.40;;;;;;;1.60;82.09;100233.94;4303466;33;33921;-69
2022/01/15 05:27:14;;;;;;;8.38;4.45;;;;;;;1.51;82.40;100236.13;4304647;33;35832;-75
2022/01/15 05:29:44;;;;;;;11.48;5.43;;;;;;;1.80;81.17;100236.41;4298439;33;34580;-70
2022/01/15 05:32:11;;;;;;;10.73;5.40;;;;;;;1.65;81.23;100227.28;4289297;33;33804;-70
2022/01/15 05:34:39;;;;;;;9.52;5.15;;;;;;;1.87;80.53;100225.53;4298761;33;34744;-73
2022/01/15 05:37:08;;;;;;;6.97;4.07;;;;;;;1.59;81.71;100227.06;4304489;33;35503;-74
2022/01/15 05:39:36;;;;;;;10.38;5.32;;;;;;;1.99;79.78;100231.16;4303400;33;34389;-70
2022/01/15 05:42:04;;;;;;;9.30;3.90;;;;;;;1.83;80.35;100239.09;4300317;33;34527;-71
2022/01/15 05:44:33;;;;;;;13.00;5.95;;;;;;;1.67;81.35;100233.34;4294941;33;32893;-73
2022/01/15 05:47:02;;;;;;;9.40;5.50;;;;;;;1.56;81.07;100242.34;4295079;33;35896;-69
2022/01/15 05:49:30;;;;;;;7.90;4.72;;;;;;;1.46;81.43;100241.06;4299277;33;34497;-76
2022/01/15 05:51:58;;;;;;;11.25;4.95;;;;;;;1.50;81.15;100242.06;4293808;33;33777;-75
2022/01/15 05:54:26;;;;;;;12.30;5.37;;;;;;;1.67;80.80;100246.19;4303459;33;33987;-74
2022/01/15 05:56:54;;;;;;;14.48;5.18;;;;;;;1.34;81.76;100250.84;4304118;33;34969;-75
2022/01/15 05:59:22;;;;;;;10.95;5.07;;;;;;;1.53;81.43;100252.47;4300255;33;35355;-74
2022/01/15 06:01:50;;;;;;;10.30;4.82;;;;;;;1.99;79.03;100264.53;4301725;33;33550;-76
2022/01/15 06:04:18;;;;;;;8.52;4.25;;;;;;;2.19;78.32;100260.19;4303115;33;34773;-73
2022/01/15 06:06:46;;;;;;;11.60;4.85;;;;;;;1.85;79.55;100263.13;4302862;33;35739;-69
2022/01/15 06:09:14;;;;;;;6.90;4.55;;;;;;;1.69;80.35;100269.34;4299490;33;35265;-76
2022/01/15 06:11:43;;;;;;;10.43;4.37;;;;;;;1.57;79.86;100274.91;4292622;33;34171;-70
2022/01/15 06:14:11;;;;;;;9.10;4.93;;;;;;;1.86;79.26;100270.03;4302083;33;34752;-75
2022/01/15 06:16:39;;;;;;;8.73;4.15;;;;;;;1.79;79.05;100279.19;4302563;33;34225;-68
2022/01/15 06:19:07;;;;;;;12.05;5.68;;;;;;;1.83;79.36;100282.75;4295359;33;34637;-68
2022/01/15 06:21:34;;;;;;;8.73;5.35;;;;;;;1.55;80.40;100278.19;4298808;33;34534;-68
2022/01/15 06:24:03;;;;;;;8.55;4.22;;;;;;;1.93;79.23;100295.13;4303141;33;34824;-69
2022/01/15 06:26:31;;;;;;;8.07;4.03;;;;;;;1.61;79.91;100281.03;4303966;33;35797;-69
2022/01/15 06:28:59;;;;;;;13.15;7.35;;;;;;;1.50;80.66;100290.84;4302903;33;34172;-73
2022/01/15 06:31:30;;;;;;;9.35;4.93;;;;;;;1.56;81.18;100291.09;4303621;33;33900;-69
2022/01/15 06:33:59;;;;;;;15.13;8.95;;;;;;;1.88;79.59;100286.38;4302809;33;33912;-69
2022/01/15 06:36:27;;;;;;;9.52;5.78;;;;;;;1.77;79.21;100290.22;4303598;33;35040;-68
2022/01/15 06:38:55;;;;;;;12.43;5.47;;;;;;;1.90;78.56;100289.88;4298047;33;35154;-68
2022/01/15 06:41:24;;;;;;;25.40;12.55;;;;;;;2.31;77.11;100282.00;4289172;33;33845;-68
2022/01/15 06:43:52;;;;;;;29.08;14.02;;;;;;;1.92;78.44;100290.81;4301121;33;32836;-68
2022/01/15 06:46:20;;;;;;;27.40;14.43;;;;;;;2.05;78.36;100289.62;4303637;33;34882;-72
2022/01/15 06:48:49;;;;;;;10.38;5.65;;;;;;;1.85;79.18;100288.81;4302500;33;35314;-72
2022/01/15 06:51:16;;;;;;;11.68;6.53;;;;;;;1.60;80.46;100292.97;4305154;33;33691;-73
2022/01/15 06:53:44;;;;;;;10.23;6.30;;;;;;;1.79;78.86;100292.03;4303433;33;34514;-75
2022/01/15 06:56:12;;;;;;;11.32;6.70;;;;;;;1.92;79.06;100290.81;4298387;33;35161;-73
2022/01/15 06:58:40;;;;;;;10.98;5.72;;;;;;;1.76;79.30;100293.59;4290613;33;34462;-74
2022/01/15 07:01:08;;;;;;;10.32;5.72;;;;;;;1.98;78.09;100288.50;4300527;33;34489;-69
2022/01/15 07:03:37;;;;;;;10.95;5.78;;;;;;;1.92;78.94;100298.50;4304096;33;34861;-70
2022/01/15 07:06:04;;;;;;;11.70;6.43;;;;;;;1.99;78.17;100300.50;4300319;33;35057;-70
2022/01/15 07:08:32;;;;;;;16.15;9.70;;;;;;;2.35;76.79;100307.91;4304294;33;34426;-73
2022/01/15 07:11:00;;;;;;;18.77;6.60;;;;;;;2.34;76.95;100303.56;4290880;33;33583;-69
2022/01/15 07:13:29;;;;;;;16.35;7.03;;;;;;;2.36;75.94;100317.34;4289678;33;32321;-69
2022/01/15 07:15:57;;;;;;;13.15;7.72;;;;;;;2.75;74.94;100311.06;4305419;33;35726;-70
2022/01/15 07:18:26;;;;;;;9.63;5.65;;;;;;;3.27;72.70;100312.03;4305479;33;35449;-69
2022/01/15 07:20:53;;;;;;;12.95;6.57;;;;;;;4.31;68.92;100315.41;4304663;33;33639;-69
2022/01/15 07:23:21;;;;;;;12.25;5.20;;;;;;;3.65;70.43;100320.16;4305378;33;33940;-69
2022/01/15 07:25:49;;;;;;;9.35;4.78;;;;;;;3.75;69.95;100317.94;4304265;33;35167;-73
2022/01/15 07:28:18;;;;;;;9.07;4.80;;;;;;;3.97;69.14;100328.94;4304454;33;34485;-70
2022/01/15 07:30:46;;;;;;;8.75;4.45;;;;;;;2.57;73.63;100339.53;4303379;33;34516;-70
2022/01/15 07:33:14;;;;;;;12.90;4.47;;;;;;;3.06;72.04;100328.47;4304293;33;33264;-69
2022/01/15 07:35:45;;;;;;;9.73;4.93;;;;;;;3.07;72.45;100327.66;4300754;33;34888;-70
2022/01/15 07:38:14;;;;;;;9.25;5.47;;;;;;;3.06;72.39;100335.34;4290831;33;34513;-69
2022/01/15 07:40:42;;;;;;;6.75;4.40;;;;;;;2.82;73.53;100339.66;4302634;33;33644;-69
2022/01/15 07:43:10;;;;;;;6.85;3.65;;;;;;;2.90;72.91;100346.78;4305284;33;33880;-70
2022/01/15 07:45:43;;;;;;;12.68;6.03;;;;;;;3.35;71.65;100341.47;4304387;33;35222;-69
2022/01/15 07:48:11;;;;;;;11.85;5.57;;;;;;;2.70;74.06;100344.34;4304167;33;35190;-69
2022/01/15 07:50:39;;;;;;;10.77;5.10;;;;;;;2.72;73.97;100357.22;4292490;33;33659;-69
2022/01/15 07:53:07;;;;;;;11.32;4.43;;;;;;;3.24;72.01;100356.56;4290795;33;34811;-69
2022/01/15 07:55:35;;;;;;;10.80;5.05;;;;;;;3.38;71.66;100357.03;4301568;33;34888;-69
2022/01/15 07:58:04;;;;;;;6.40;3.75;;;;;;;3.68;70.86;100353.75;4305488;33;34489;-69
2022/01/15 08:00:32;;;;;;;10.93;4.93;;;;;;;3.82;69.67;100359.37;4303463;33;34530;-70
2022/01/15 08:03:01;;;;;;;8.63;4.28;;;;;;;4.24;68.70;100354.72;4303339;33;34037;-69
2022/01/15 08:05:29;;;;;;;9.73;4.28;;;;;;;4.97;65.43;100352.56;4305059;33;35038;-69
2022/01/15 08:07:57;;;;;;;10.60;3.75;;;;;;;4.91;64.96;100360.13;4303949;33;34330;-69
2022/01/15 08:10:25;;;;;;;7.40;3.90;;;;;;;5.08;65.18;100358.00;4305045;33;33601;-70
2022/01/15 08:12:53;;;;;;;8.70;4.47;;;;;;;5.12;64.11;100365.91;4308185;33;33805;-69
2022/01/15 08:15:21;;;;;;;129.23;48.60;;;;;;;5.63;63.28;100363.78;4319694;33;35125;-73
2022/01/15 08:17:50;;;;;;;286.75;100.80;;;;;;;4.48;66.06;100371.75;4306867;33;34594;-71
2022/01/15 08:20:17;;;;;;;11.85;8.10;;;;;;;5.44;63.17;100363.31;4313527;33;34665;-69
2022/01/15 08:22:46;;;;;;;9.25;4.20;;;;;;;5.27;63.78;100374.91;4319520;33;34652;-70
2022/01/15 08:25:18;;;;;;;8.00;3.42;;;;;;;5.12;63.95;100371.06;4310380;33;35868;-68
2022/01/15 08:27:46;;;;;;;4.60;2.15;;;;;;;5.05;63.37;100374.31;4305108;33;34340;-69
2022/01/15 08:30:15;;;;;;;7.68;3.75;;;;;;;5.81;61.39;100379.75;4312979;33;33682;-69
2022/01/15 08:32:43;;;;;;;22.30;13.15;;;;;;;5.67;61.52;100383.72;4319628;33;34528;-73
2022/01/15 08:35:12;;;;;;;74.20;33.80;;;;;;;5.17;62.62;100388.38;4316117;33;35028;-69
2022/01/15 08:37:41;;;;;;;11.43;7.22;;;;;;;5.50;62.19;100366.03;4312077;33;35215;-70
2022/01/15 08:40:10;;;;;;;7.57;3.28;;;;;;;5.74;60.94;100372.69;4318060;33;33721;-68
2022/01/15 08:42:38;;;;;;;9.02;3.25;;;;;;;5.64;60.70;100366.41;4319367;33;33801;-68
2022/01/15 08:45:07;;;;;;;12.93;6.80;;;;;;;5.36;62.72;100369.97;4302865;33;35140;-68
2022/01/15 08:47:36;;;;;;;10.23;4.40;;;;;;;5.83;60.46;100362.59;4306345;33;35235;-68
2022/01/15 08:50:06;;;;;;;23.05;12.57;;;;;;;6.09;59.80;100367.56;4318087;33;33586;-68
2022/01/15 08:52:35;;;;;;;9.93;3.78;;;;;;;5.80;59.48;100367.66;4304119;33;34007;-68
2022/01/15 08:55:03;;;;;;;5.80;3.25;;;;;;;6.20;60.29;100362.63;4295481;33;35047;-74
2022/01/15 08:57:32;;;;;;;7.97;3.70;;;;;;;6.97;55.42;100361.72;4318717;33;34705;-70
2022/01/15 09:00:01;;;;;;;8.00;2.97;;;;;;;6.30;57.12;100371.47;4325275;33;33641;-70
2022/01/15 09:02:28;;;;;;;5.70;2.50;;;;;;;7.21;55.94;100374.28;4323252;33;34142;-73
2022/01/15 09:04:57;;;;;;;7.43;2.92;;;;;;;8.18;52.74;100354.34;4325944;33;35178;-73
2022/01/15 09:07:25;;;;;;;7.00;3.00;;;;;;;8.78;50.70;100356.09;4328157;33;34392;-73
2022/01/15 09:09:52;;;;;;;4.43;2.25;;;;;;;8.24;51.81;100359.63;4315083;33;33534;-70
2022/01/15 09:12:22;;;;;;;9.55;2.75;;;;;;;8.14;50.38;100367.28;4319039;33;33899;-72
2022/01/15 09:14:58;;;;;;;8.25;2.72;;;;;;;7.86;51.19;100360.78;4311371;33;34757;-72
2022/01/15 09:17:26;;;;;;;5.60;2.25;;;;;;;7.35;53.38;100367.66;4326469;33;34450;-69
2022/01/15 09:19:55;;;;;;;4.97;2.40;;;;;;;7.24;53.07;100352.75;4313654;33;34549;-72
2022/01/15 09:22:22;;;;;;;4.55;2.10;;;;;;;6.81;54.70;100357.94;4321207;33;33681;-72
2022/01/15 09:24:50;;;;;;;9.73;2.92;;;;;;;7.20;52.88;100355.28;4310870;33;35002;-70
2022/01/15 09:30:12;;;;;;;13.25;2.20;;;;;;;6.66;53.55;100339.50;4325940;33;33552;-71
2022/01/15 09:32:46;;;;;;;4.33;2.33;;;;;;;7.02;52.38;100353.22;4323095;33;33856;-69
2022/01/15 09:35:18;;;;;;;9.57;3.72;;;;;;;6.93;53.61;100355.59;4325021;33;36041;-71
2022/01/15 09:37:50;;;;;;;7.03;3.28;;;;;;;6.63;53.94;100351.53;4315860;33;34584;-75
2022/01/15 09:40:20;;;;;;;5.30;2.12;;;;;;;6.13;54.55;100350.41;4320468;33;33603;-74
2022/01/15 09:42:49;;;;;;;6.68;2.85;;;;;;;6.03;55.35;100349.31;4304030;33;33893;-73
2022/01/15 09:45:20;;;;;;;14.20;4.50;;;;;;;6.37;54.29;100353.56;4304314;33;35159;-69
2022/01/15 09:48:08;;;;;;;8.13;3.53;;;;;;;7.19;52.58;100334.53;4328168;33;35201;-70
2022/01/15 09:50:43;;;;;;;6.78;2.45;;;;;;;6.87;52.76;100336.50;4325243;33;33658;-74
2022/01/15 09:53:16;;;;;;;7.00;2.85;;;;;;;7.47;51.04;100319.50;4324879;33;33813;-70
2022/01/15 09:55:46;;;;;;;9.23;3.20;;;;;;;7.56;50.76;100330.03;4322595;33;34942;-69
2022/01/15 09:58:16;;;;;;;5.90;2.53;;;;;;;6.91;52.76;100326.22;4330711;33;34636;-73
2022/01/15 10:00:45;;;;;;;5.82;2.30;;;;;;;6.92;52.65;100324.50;4311757;33;34513;-72
2022/01/15 10:03:14;;;;;;;5.68;2.47;;;;;;;7.89;49.79;100303.78;4320790;33;34072;-68
2022/01/15 10:05:43;;;;;;;3.97;2.05;;;;;;;7.86;49.14;100314.09;4315175;33;35241;-69
2022/01/15 10:08:13;;;;;;;7.07;2.55;;;;;;;8.16;48.06;100320.59;4330293;33;34484;-74
2022/01/15 10:10:48;;;;;;;9.02;2.42;;;;;;;8.43;47.67;100307.16;4318883;33;33297;-69
2022/01/15 10:13:24;;;;;;;6.95;2.65;;;;;;;9.76;44.92;100325.09;4311361;33;34029;-68
2022/01/15 10:15:57;;;;;;;6.97;2.95;;;;;;;10.19;43.77;100319.34;4318995;33;35066;-72
2022/01/15 10:18:28;;;;;;;8.30;3.33;;;;;;;10.25;43.67;100316.75;4323593;33;34562;-69
2022/01/15 10:21:10;;;;;;;8.60;3.83;;;;;;;9.93;43.45;100317.41;4323641;33;32725;-69
2022/01/15 10:23:49;;;;;;;71.10;25.73;;;;;;;10.05;42.62;100317.50;4325140;33;34057;-69
2022/01/15 10:26:20;;;;;;;16.80;9.20;;;;;;;10.41;42.65;100303.03;4327663;33;35208;-69
2022/01/15 10:28:59;;;;;;;63.85;23.90;;;;;;;11.08;40.67;100301.56;4319696;33;34629;-70
2022/01/15 10:31:33;;;;;;;18.12;8.68;;;;;;;10.38;41.83;100312.56;4312200;33;33765;-69
2022/01/15 10:34:32;;;;;;;26.73;12.20;;;;;;;10.29;41.77;100305.53;4327862;33;34141;-69
2022/01/15 10:37:37;;;;;;;33.90;19.87;;;;;;;10.45;41.72;100301.31;4325508;33;34932;-74
2022/01/15 10:40:11;;;;;;;11.57;4.65;;;;;;;10.35;42.03;100304.72;4322145;33;35424;-75
2022/01/15 10:42:40;;;;;;;11.55;5.00;;;;;;;11.33;40.24;100314.63;4306380;33;33773;-69
2022/01/15 10:45:13;;;;;;;10.85;6.57;;;;;;;11.35;39.71;100310.31;4330424;33;33931;-68
2022/01/15 10:47:47;;;;;;;5.78;3.55;;;;;;;10.89;40.02;100307.56;4328450;33;35894;-74
2022/01/15 10:50:36;;;;;;;5.53;2.85;;;;;;;9.97;41.51;100311.37;4325913;33;34576;-69
2022/01/15 10:53:07;;;;;;;11.45;5.50;;;;;;;10.17;42.03;100305.44;4321147;33;34492;-76
2022/01/15 10:55:35;;;;;;;10.38;5.18;;;;;;;9.96;42.43;100294.03;4330301;33;34069;-70
2022/01/15 10:58:04;;;;;;;9.75;4.28;;;;;;;11.20;40.24;100298.09;4328195;33;35038;-70
2022/01/15 11:00:45;;;;;;;7.03;2.72;;;;;;;10.79;40.11;100291.87;4324206;33;35436;-72
2022/01/15 11:03:18;;;;;;;6.07;3.72;;;;;;;10.67;39.65;100284.03;4321209;33;33468;-71
2022/01/15 11:05:51;;;;;;;8.88;2.10;;;;;;;10.22;39.78;100288.13;4317302;33;34823;-72
2022/01/15 11:08:20;;;;;;;6.68;2.30;;;;;;;10.69;39.62;100282.28;4315061;33;35110;-70
2022/01/15 11:10:53;;;;;;;11.07;2.10;;;;;;;10.34;40.74;100283.03;4323226;33;34221;-70
2022/01/15 11:13:30;;;;;;;5.20;2.20;;;;;;;11.07;38.43;100284.16;4318379;33;33582;-71
2022/01/15 11:16:04;;;;;;;;;;;;;;;10.43;39.75;100277.00;4322448;33;34145;-76
2022/01/15 11:18:37;;;;;;;6.45;3.28;;;;;;;10.05;40.42;100282.81;4320719;33;35366;-75
2022/01/15 11:21:08;;;;;;;8.55;3.92;;;;;;;9.29;41.86;100271.78;4303817;33;35118;-74
2022/01/15 11:23:37;;;;;;;10.95;3.03;;;;;;;10.63;39.44;100262.31;4303251;33;33765;-74
2022/01/15 11:26:11;;;;;;;9.95;4.60;;;;;;;11.04;39.51;100260.69;4311396;33;34093;-74
2022/01/15 11:28:41;;;;;;;9.35;3.80;;;;;;;10.27;39.83;100254.28;4317632;33;34912;-74
2022/01/15 11:31:11;;;;;;;9.52;3.62;;;;;;;9.99;41.07;100274.97;4316472;33;35322;-74
2022/01/15 11:33:45;;;;;;;7.03;3.85;;;;;;;9.14;41.99;100276.88;4303132;33;33761;-73
2022/01/15 11:36:39;;;;;;;11.02;3.92;;;;;;;9.65;41.79;100274.69;4313305;33;34026;-70
2022/01/15 11:39:08;;;;;;;12.27;5.82;;;;;;;10.43;40.56;100277.84;4306818;33;36057;-76
2022/01/15 11:41:42;;;;;;;11.63;5.87;;;;;;;10.38;39.97;100279.56;4309723;33;34379;-71
2022/01/15 11:44:28;;;;;;;6.87;2.40;;;;;;;10.16;40.50;100285.47;4319868;33;33739;-73
2022/01/15 11:47:00;;;;;;;12.07;4.57;;;;;;;11.16;38.88;100286.78;4318516;33;34722;-75
2022/01/15 11:49:50;;;;;;;5.72;2.92;;;;;;;10.60;39.16;100267.50;4318753;33;34954;-75
2022/01/15 11:52:21;;;;;;;11.27;4.32;;;;;;;10.60;39.93;100251.00;4311367;33;34504;-75
2022/01/15 11:54:49;;;;;;;10.73;3.53;;;;;;;10.70;39.41;100271.03;4314575;33;33707;-72
2022/01/15 11:57:42;;;;;;;6.18;2.80;;;;;;;10.35;40.29;100282.16;4318617;33;34668;-78
2022/01/15 12:00:20;;;;;;;10.63;3.45;;;;;;;10.39;40.29;100270.91;4318478;33;36129;-73
2022/01/15 12:03:06;;;;;;;7.90;3.12;;;;;;;9.42;42.89;100283.19;4318242;33;34610;-76
2022/01/15 12:05:42;;;;;;;7.37;3.20;;;;;;;10.09;42.24;100268.09;4291966;33;33539;-79